createdAt,value
2018-07-12T00:00:25.722Z,100484.03
2018-07-12T00:02:52.931Z,100486.50
2018-07-12T00:05:20.226Z,100484.98
2018-07-12T00:07:47.509Z,100488.81
2018-07-12T00:10:14.799Z,100481.96
2018-07-12T00:12:42.069Z,100483.36
2018-07-12T00:15:09.377Z,100480.78
2018-07-12T00:17:36.609Z,100487.22
2018-07-12T00:20:04.011Z,100486.98
2018-07-12T00:22:31.313Z,100488.99
2018-07-12T00:24:58.888Z,100481.27
2018-07-12T00:27:26.380Z,100489.97
2018-07-12T00:29:53.903Z,100495.19
2018-07-12T00:32:21.470Z,100499.84
2018-07-12T00:34:48.740Z,100502.42
2018-07-12T00:37:16.188Z,100501.28
2018-07-12T00:39:43.470Z,100493.97
2018-07-12T00:42:10.951Z,100486.92
2018-07-12T00:44:38.241Z,100480.95
2018-07-12T00:47:05.542Z,100482.23
2018-07-12T00:49:33.215Z,100474.09
2018-07-12T00:52:00.580Z,100473.71
2018-07-12T00:54:27.817Z,100470.73
2018-07-12T00:56:55.205Z,100465.23
2018-07-12T00:59:23.196Z,100464.54
2018-07-12T01:01:50.499Z,100460.27
2018-07-12T01:04:18.417Z,100465.76
2018-07-12T01:06:45.709Z,100464.13
2018-07-12T01:09:13.330Z,100455.61
2018-07-12T01:11:40.739Z,100457.24
2018-07-12T01:14:08.008Z,100457.70
2018-07-12T01:16:35.607Z,100460.30
2018-07-12T01:19:02.838Z,100459.54
2018-07-12T01:21:32.179Z,100459.61
2018-07-12T01:23:59.459Z,100461.80
2018-07-12T01:26:26.737Z,100460.41
2018-07-12T01:28:54.014Z,100461.59
2018-07-12T01:31:21.285Z,100458.91
2018-07-12T01:33:48.573Z,100461.10
2018-07-12T01:36:15.865Z,100462.19
2018-07-12T01:38:43.184Z,100459.34
2018-07-12T01:41:10.433Z,100464.75
2018-07-12T01:43:37.656Z,100462.22
2018-07-12T01:46:05.166Z,100467.50
2018-07-12T01:48:32.424Z,100463.98
2018-07-12T01:50:59.667Z,100466.25
2018-07-12T01:53:27.050Z,100466.00
2018-07-12T01:55:54.366Z,100469.93
2018-07-12T01:58:21.591Z,100464.62
2018-07-12T02:00:48.950Z,100458.60
2018-07-12T02:03:16.567Z,100461.73
2018-07-12T02:05:43.905Z,100466.00
2018-07-12T02:08:11.724Z,100462.22
2018-07-12T02:10:39.067Z,100458.81
2018-07-12T02:13:06.329Z,100458.46
2018-07-12T02:15:33.601Z,100461.38
2018-07-12T02:18:00.878Z,100463.92
2018-07-12T02:20:28.103Z,100462.98
2018-07-12T02:22:55.425Z,100463.40
2018-07-12T02:25:22.728Z,100455.06
2018-07-12T02:27:50.041Z,100460.89
2018-07-12T02:30:17.336Z,100462.49
2018-07-12T02:32:44.542Z,100456.41
2018-07-12T02:35:11.831Z,100457.63
2018-07-12T02:37:39.016Z,100460.44
2018-07-12T02:40:06.345Z,100456.55
2018-07-12T02:42:33.587Z,100457.83
2018-07-12T02:45:00.813Z,100462.03
2018-07-12T02:47:28.060Z,100457.69
2018-07-12T02:49:55.301Z,100461.09
2018-07-12T02:52:22.565Z,100454.58
2018-07-12T02:54:50.033Z,100451.97
2018-07-12T02:57:17.350Z,100450.69
2018-07-12T02:59:44.577Z,100452.66
2018-07-12T03:02:11.861Z,100443.23
2018-07-12T03:04:39.310Z,100435.03
2018-07-12T03:07:06.730Z,100436.28
2018-07-12T03:09:33.978Z,100443.61
2018-07-12T03:12:01.510Z,100440.09
2018-07-12T03:14:28.789Z,100437.91
2018-07-12T03:16:56.234Z,100434.84
2018-07-12T03:19:23.818Z,100430.91
2018-07-12T03:21:51.380Z,100425.64
2018-07-12T03:24:18.739Z,100430.48
2018-07-12T03:26:46.240Z,100439.50
2018-07-12T03:29:13.661Z,100438.40
2018-07-12T03:31:41.076Z,100440.74
2018-07-12T03:34:08.331Z,100445.06
2018-07-12T03:36:35.777Z,100451.98
2018-07-12T03:39:03.337Z,100454.70
2018-07-12T03:41:30.731Z,100458.91
2018-07-12T03:43:58.087Z,100449.86
2018-07-12T03:46:25.414Z,100454.91
2018-07-12T03:48:52.683Z,100449.72
2018-07-12T03:51:20.172Z,100447.03
2018-07-12T03:53:47.449Z,100456.00
2018-07-12T03:56:14.741Z,100453.66
2018-07-12T03:58:42.000Z,100449.30
2018-07-12T04:01:09.287Z,100447.44
2018-07-12T04:03:36.729Z,100450.73
2018-07-12T04:06:04.052Z,100449.86
2018-07-12T04:08:31.562Z,100457.05
2018-07-12T04:11:08.006Z,100468.53
2018-07-12T04:13:35.494Z,100457.35
2018-07-12T04:16:03.801Z,100461.10
2018-07-12T04:18:31.103Z,100453.67
2018-07-12T04:20:58.360Z,100454.34
2018-07-12T04:23:25.785Z,100447.36
2018-07-12T04:25:53.160Z,100451.52
2018-07-12T04:28:20.430Z,100457.84
2018-07-12T04:30:47.683Z,100457.34
2018-07-12T04:33:14.935Z,100459.43
2018-07-12T04:35:42.205Z,100454.57
2018-07-12T04:38:09.443Z,100455.70
2018-07-12T04:40:36.745Z,100461.94
2018-07-12T04:43:03.998Z,100466.63
2018-07-12T04:45:31.307Z,100463.39
2018-07-12T04:47:58.538Z,100466.27
2018-07-12T04:50:25.819Z,100460.56
2018-07-12T04:52:53.116Z,100459.06
2018-07-12T04:55:20.359Z,100464.59
2018-07-12T04:57:47.628Z,100466.01
2018-07-12T05:00:14.899Z,100469.33
2018-07-12T05:02:42.151Z,100465.30
2018-07-12T05:05:09.414Z,100465.95
2018-07-12T05:07:36.659Z,100459.37
2018-07-12T05:10:03.916Z,100452.17
2018-07-12T05:12:31.156Z,100447.57
2018-07-12T05:14:58.405Z,100446.38
2018-07-12T05:17:25.677Z,100446.56
2018-07-12T05:19:53.156Z,100447.20
2018-07-12T05:22:20.401Z,100448.69
2018-07-12T05:24:47.662Z,100444.06
2018-07-12T05:27:14.959Z,100446.27
2018-07-12T05:29:42.223Z,100451.23
2018-07-12T05:32:09.478Z,100450.38
2018-07-12T05:34:36.753Z,100451.48
2018-07-12T05:37:05.945Z,100466.09
2018-07-12T05:39:34.424Z,100461.39
2018-07-12T05:42:02.907Z,100463.56
2018-07-12T05:44:31.375Z,100464.67
2018-07-12T05:46:59.840Z,100463.25
2018-07-12T05:49:28.252Z,100466.20
2018-07-12T05:51:56.855Z,100475.66
2018-07-12T05:54:25.311Z,100467.44
2018-07-12T05:57:00.637Z,100471.27
2018-07-12T05:59:29.276Z,100472.66
2018-07-12T06:02:08.919Z,100478.23
2018-07-12T06:04:37.359Z,100484.17
2018-07-12T06:07:05.962Z,100487.14
2018-07-12T06:09:34.360Z,100493.09
2018-07-12T06:12:02.819Z,100495.53
2018-07-12T06:14:31.331Z,100500.89
2018-07-12T06:16:59.950Z,100502.83
2018-07-12T06:19:28.489Z,100499.35
2018-07-12T06:21:56.892Z,100496.61
2018-07-12T06:24:25.427Z,100491.89
2018-07-12T06:26:53.876Z,100496.59
2018-07-12T06:29:22.419Z,100499.71
2018-07-12T06:31:50.904Z,100497.11
2018-07-12T06:34:19.463Z,100497.63
2018-07-12T06:36:47.952Z,100499.75
2018-07-12T06:39:18.695Z,100507.89
2018-07-12T06:41:47.405Z,100502.15
2018-07-12T06:44:15.985Z,100503.91
2018-07-12T06:46:44.479Z,100502.09
2018-07-12T06:49:13.027Z,100499.50
2018-07-12T06:51:41.403Z,100496.00
2018-07-12T06:54:09.881Z,100503.64
2018-07-12T06:56:38.381Z,100503.12
2018-07-12T06:59:06.885Z,100507.52
2018-07-12T07:01:36.224Z,100506.55
2018-07-12T07:04:04.681Z,100509.45
2018-07-12T07:06:33.184Z,100507.01
2018-07-12T07:09:01.671Z,100503.91
2018-07-12T07:11:30.198Z,100504.16
2018-07-12T07:13:58.657Z,100506.75
2018-07-12T07:16:27.554Z,100507.38
2018-07-12T07:18:56.157Z,100505.57
2018-07-12T07:21:24.654Z,100504.48
2018-07-12T07:23:53.168Z,100511.78
2018-07-12T07:26:21.763Z,100507.52
2018-07-12T07:28:50.235Z,100508.30
2018-07-12T07:31:18.793Z,100511.66
2018-07-12T07:33:47.315Z,100498.95
2018-07-12T07:36:15.897Z,100505.41
2018-07-12T07:38:44.366Z,100507.22
2018-07-12T07:41:12.887Z,100500.87
2018-07-12T07:43:41.385Z,100501.39
2018-07-12T07:46:09.810Z,100501.55
2018-07-12T07:48:38.230Z,100500.23
2018-07-12T07:51:06.851Z,100503.31
2018-07-12T07:53:35.303Z,100499.61
2018-07-12T07:56:03.781Z,100499.01
2018-07-12T07:58:32.524Z,100502.92
2018-07-12T08:01:00.943Z,100501.98
2018-07-12T08:03:29.440Z,100514.27
2018-07-12T08:05:57.886Z,100505.92
2018-07-12T08:08:26.371Z,100506.24
2018-07-12T08:10:55.240Z,100507.45
2018-07-12T08:13:23.847Z,100503.45
2018-07-12T08:15:52.458Z,100509.73
2018-07-12T08:18:20.889Z,100506.88
2018-07-12T08:20:49.338Z,100513.16
2018-07-12T08:23:17.752Z,100508.91
2018-07-12T08:25:46.192Z,100507.27
2018-07-12T08:28:26.644Z,100504.30
2018-07-12T08:30:55.490Z,100500.02
2018-07-12T08:33:24.619Z,100511.70
2018-07-12T08:35:53.167Z,100510.67
2018-07-12T08:38:21.730Z,100505.38
2018-07-12T08:40:50.356Z,100508.73
2018-07-12T08:43:19.144Z,100505.78
2018-07-12T08:45:47.579Z,100504.68
2018-07-12T08:48:16.137Z,100500.63
2018-07-12T08:50:44.584Z,100503.97
2018-07-12T08:53:13.091Z,100503.31
2018-07-12T08:55:41.499Z,100500.07
2018-07-12T08:58:10.098Z,100506.30
2018-07-12T09:00:38.717Z,100507.16
2018-07-12T09:03:07.332Z,100507.34
2018-07-12T09:05:35.914Z,100509.02
2018-07-12T09:08:04.591Z,100506.27
2018-07-12T09:10:33.887Z,100511.17
2018-07-12T09:13:02.337Z,100507.26
2018-07-12T09:15:30.947Z,100510.69
2018-07-12T09:17:59.714Z,100507.09
2018-07-12T09:20:28.341Z,100507.72
2018-07-12T09:22:57.025Z,100505.62
2018-07-12T09:25:25.663Z,100500.88
2018-07-12T09:27:54.261Z,100500.02
2018-07-12T09:30:22.908Z,100492.77
2018-07-12T09:32:51.476Z,100500.23
2018-07-12T09:35:20.046Z,100497.78
2018-07-12T09:37:48.523Z,100497.98
2018-07-12T09:40:17.087Z,100507.09
2018-07-12T09:42:45.669Z,100500.83
2018-07-12T09:45:14.255Z,100502.89
2018-07-12T09:47:42.858Z,100500.64
2018-07-12T09:50:11.469Z,100507.05
2018-07-12T09:52:40.055Z,100506.95
2018-07-12T09:55:08.791Z,100503.33
2018-07-12T09:57:48.350Z,100497.73
2018-07-12T10:00:17.121Z,100503.84
2018-07-12T10:02:50.959Z,100508.27
2018-07-12T10:05:24.759Z,100506.14
2018-07-12T10:07:58.537Z,100509.64
2018-07-12T10:10:30.154Z,100515.38
2018-07-12T10:13:04.020Z,100516.79
2018-07-12T10:15:37.837Z,100521.28
2018-07-12T10:18:11.628Z,100508.43
2018-07-12T10:20:41.421Z,100523.17
2018-07-12T10:23:09.992Z,100519.93
2018-07-12T10:25:38.511Z,100515.83
2018-07-12T10:28:06.984Z,100521.22
2018-07-12T10:30:35.461Z,100517.41
2018-07-12T10:33:04.049Z,100513.55
2018-07-12T10:35:32.727Z,100513.45
2018-07-12T10:38:01.239Z,100514.48
2018-07-12T10:40:29.725Z,100505.32
2018-07-12T10:42:58.279Z,100507.28
2018-07-12T10:45:26.796Z,100509.23
2018-07-12T10:47:55.286Z,100508.35
2018-07-12T10:50:23.780Z,100506.91
2018-07-12T10:52:52.261Z,100509.77
2018-07-12T10:55:20.713Z,100506.23
2018-07-12T10:57:49.202Z,100511.61
2018-07-12T11:00:17.649Z,100512.44
2018-07-12T11:02:46.127Z,100511.54
2018-07-12T11:05:14.579Z,100507.63
2018-07-12T11:07:43.251Z,100511.41
2018-07-12T11:10:11.682Z,100503.42
2018-07-12T11:12:40.160Z,100501.88
2018-07-12T11:15:08.725Z,100506.28
2018-07-12T11:17:37.136Z,100515.03
2018-07-12T11:20:05.745Z,100508.23
2018-07-12T11:22:34.319Z,100504.17
2018-07-12T11:25:02.807Z,100511.96
2018-07-12T11:27:31.279Z,100499.52
2018-07-12T11:30:00.223Z,100504.23
2018-07-12T11:32:28.735Z,100504.24
2018-07-12T11:34:57.200Z,100500.11
2018-07-12T11:37:27.006Z,100507.20
2018-07-12T11:39:55.524Z,100501.36
2018-07-12T11:42:23.950Z,100506.85
2018-07-12T11:44:52.445Z,100499.96
2018-07-12T11:47:21.132Z,100500.80
2018-07-12T11:49:49.801Z,100497.05
2018-07-12T11:52:18.380Z,100494.63
2018-07-12T11:54:47.272Z,100497.84
2018-07-12T11:57:15.786Z,100503.20
2018-07-12T11:59:44.196Z,100503.02
2018-07-12T12:02:12.731Z,100504.52
2018-07-12T12:04:41.684Z,100503.77
2018-07-12T12:07:10.426Z,100500.33
2018-07-12T12:09:38.990Z,100502.72
2018-07-12T12:12:07.771Z,100497.29
2018-07-12T12:14:36.181Z,100485.24
2018-07-12T12:17:04.552Z,100490.73
2018-07-12T12:19:33.206Z,100494.19
2018-07-12T12:22:01.858Z,100487.75
2018-07-12T12:24:30.317Z,100495.50
2018-07-12T12:26:59.699Z,100500.47
2018-07-12T12:29:29.343Z,100495.66
2018-07-12T12:31:57.758Z,100493.97
2018-07-12T12:34:26.219Z,100500.97
2018-07-12T12:36:54.764Z,100492.19
2018-07-12T12:39:23.505Z,100486.01
2018-07-12T12:41:52.062Z,100492.09
2018-07-12T12:44:20.707Z,100489.24
2018-07-12T12:46:49.197Z,100484.45
2018-07-12T12:49:17.678Z,100483.61
2018-07-12T12:51:46.173Z,100481.40
2018-07-12T12:54:15.292Z,100479.08
2018-07-12T12:56:43.786Z,100485.38
2018-07-12T12:59:12.206Z,100478.64
2018-07-12T13:01:40.619Z,100472.65
2018-07-12T13:04:09.137Z,100478.56
2018-07-12T13:06:37.877Z,100477.63
2018-07-12T13:09:07.530Z,100481.73
2018-07-12T13:11:36.339Z,100480.36
2018-07-12T13:14:05.796Z,100476.80
2018-07-12T13:16:34.849Z,100479.27
2018-07-12T13:19:03.526Z,100468.99
2018-07-12T13:21:32.400Z,100480.02
2018-07-12T13:24:01.717Z,100476.97
2018-07-12T13:26:30.528Z,100473.83
2018-07-12T13:28:59.390Z,100475.64
2018-07-12T13:31:28.376Z,100472.16
2018-07-12T13:33:57.217Z,100473.03
2018-07-12T13:36:25.885Z,100469.94
2018-07-12T13:38:54.847Z,100492.59
2018-07-12T13:41:23.631Z,100488.09
2018-07-12T13:44:02.180Z,100483.36
2018-07-12T13:46:30.830Z,100485.38
2018-07-12T13:48:59.832Z,100485.27
2018-07-12T13:51:28.634Z,100483.45
2018-07-12T13:53:57.646Z,100486.41
2018-07-12T13:56:26.733Z,100483.79
2018-07-12T13:58:55.701Z,100478.63
2018-07-12T14:01:24.697Z,100477.54
2018-07-12T14:03:53.687Z,100480.77
2018-07-12T14:06:22.589Z,100474.84
2018-07-12T14:08:51.595Z,100478.78
2018-07-12T14:11:20.693Z,100473.08
2018-07-12T14:13:49.885Z,100475.92
2018-07-12T14:16:18.752Z,100481.05
2018-07-12T14:18:47.444Z,100479.52
2018-07-12T14:21:16.145Z,100468.58
2018-07-12T14:23:44.975Z,100477.86
2018-07-12T14:26:13.437Z,100478.32
2018-07-12T14:28:42.324Z,100474.77
2018-07-12T14:31:10.904Z,100473.08
2018-07-12T14:33:39.312Z,100474.39
2018-07-12T14:36:07.851Z,100469.59
2018-07-12T14:38:36.400Z,100465.62
2018-07-12T14:41:04.858Z,100466.81
2018-07-12T14:43:33.382Z,100463.48
2018-07-12T14:46:01.805Z,100462.06
2018-07-12T14:48:30.286Z,100462.76
2018-07-12T14:50:59.033Z,100462.43
2018-07-12T14:53:27.618Z,100464.73
2018-07-12T14:55:56.230Z,100462.48
2018-07-12T14:58:25.018Z,100457.47
2018-07-12T15:00:53.825Z,100459.59
2018-07-12T15:03:22.414Z,100454.67
2018-07-12T15:05:50.932Z,100444.66
2018-07-12T15:08:19.535Z,100453.89
2018-07-12T15:10:48.440Z,100450.49
2018-07-12T15:13:16.985Z,100453.17
2018-07-12T15:15:45.600Z,100459.49
2018-07-12T15:18:14.117Z,100453.80
2018-07-12T15:20:42.569Z,100461.88
2018-07-12T15:23:11.083Z,100454.13
2018-07-12T15:25:39.668Z,100455.75
2018-07-12T15:28:08.338Z,100453.61
2018-07-12T15:30:36.832Z,100460.83
2018-07-12T15:33:05.336Z,100464.45
2018-07-12T15:35:33.812Z,100458.50
2018-07-12T15:38:02.257Z,100465.30
2018-07-12T15:40:30.742Z,100472.31
2018-07-12T15:42:59.210Z,100471.88
2018-07-12T15:45:27.712Z,100471.45
2018-07-12T15:47:56.182Z,100473.00
2018-07-12T15:50:26.106Z,100470.20
2018-07-12T15:52:54.731Z,100489.38
2018-07-12T15:55:23.182Z,100486.30
2018-07-12T15:57:51.692Z,100494.80
2018-07-12T16:00:20.214Z,100490.94
2018-07-12T16:02:48.662Z,100499.73
2018-07-12T16:05:17.280Z,100490.92
2018-07-12T16:07:45.917Z,100490.19
2018-07-12T16:10:14.452Z,100492.11
2018-07-12T16:12:42.935Z,100496.84
2018-07-12T16:15:11.485Z,100497.44
2018-07-12T16:17:40.049Z,100493.27
2018-07-12T16:20:08.765Z,100498.16
2018-07-12T16:22:37.502Z,100497.56
2018-07-12T16:25:06.458Z,100499.59
2018-07-12T16:27:35.006Z,100490.78
2018-07-12T16:30:03.584Z,100498.76
2018-07-12T16:32:32.260Z,100494.58
2018-07-12T16:35:00.899Z,100496.38
2018-07-12T16:37:29.665Z,100499.47
2018-07-12T16:39:58.487Z,100496.38
2018-07-12T16:42:26.982Z,100495.06
2018-07-12T16:44:55.889Z,100501.34
2018-07-12T16:47:24.392Z,100495.38
2018-07-12T16:49:52.993Z,100494.93
2018-07-12T16:52:21.951Z,100489.19
2018-07-12T16:54:50.848Z,100491.16
2018-07-12T16:57:19.354Z,100497.63
2018-07-12T16:59:48.044Z,100495.09
2018-07-12T17:02:16.691Z,100500.25
2018-07-12T17:04:45.406Z,100498.30
2018-07-12T17:07:14.008Z,100499.02
2018-07-12T17:09:42.452Z,100505.48
2018-07-12T17:12:11.058Z,100504.35
2018-07-12T17:14:39.550Z,100499.33
2018-07-12T17:17:08.233Z,100498.26
2018-07-12T17:19:36.920Z,100503.05
2018-07-12T17:22:05.458Z,100504.80
2018-07-12T17:24:33.961Z,100503.98
2018-07-12T17:27:02.633Z,100501.09
2018-07-12T17:29:31.121Z,100500.73
2018-07-12T17:31:59.780Z,100502.05
2018-07-12T17:34:28.443Z,100505.73
2018-07-12T17:36:57.047Z,100501.33
2018-07-12T17:39:27.528Z,100503.22
2018-07-12T17:41:56.102Z,100500.70
2018-07-12T17:44:24.784Z,100508.61
2018-07-12T17:46:53.299Z,100503.03
2018-07-12T17:49:21.866Z,100503.24
2018-07-12T17:51:50.536Z,100508.33
2018-07-12T17:54:19.166Z,100506.19
2018-07-12T17:56:47.625Z,100512.97
2018-07-12T17:59:16.277Z,100522.76
2018-07-12T18:01:44.807Z,100516.98
2018-07-12T18:04:13.607Z,100511.33
2018-07-12T18:06:42.324Z,100509.20
2018-07-12T18:09:10.875Z,100509.68
2018-07-12T18:11:39.489Z,100507.16
2018-07-12T18:14:08.093Z,100511.77
2018-07-12T18:16:36.737Z,100505.36
2018-07-12T18:19:05.180Z,100504.68
2018-07-12T18:21:33.754Z,100507.67
2018-07-12T18:24:02.341Z,100514.78
2018-07-12T18:26:30.837Z,100511.69
2018-07-12T18:28:59.465Z,100516.52
2018-07-12T18:31:27.996Z,100515.64
2018-07-12T18:33:56.638Z,100522.32
2018-07-12T18:36:25.201Z,100520.09
2018-07-12T18:38:53.749Z,100524.36
2018-07-12T18:41:22.376Z,100528.35
2018-07-12T18:43:50.900Z,100534.98
2018-07-12T18:46:19.374Z,100533.04
2018-07-12T18:48:47.889Z,100538.99
2018-07-12T18:51:16.376Z,100545.59
2018-07-12T18:53:45.331Z,100550.08
2018-07-12T18:56:14.011Z,100551.97
2018-07-12T18:58:42.610Z,100552.95
2018-07-12T19:01:11.132Z,100558.84
2018-07-12T19:03:39.815Z,100565.12
2018-07-12T19:06:08.273Z,100565.17
2018-07-12T19:08:36.919Z,100559.98
2018-07-12T19:11:05.505Z,100571.19
2018-07-12T19:13:34.570Z,100573.44
2018-07-12T19:16:03.669Z,100579.80
2018-07-12T19:18:32.356Z,100567.62
2018-07-12T19:21:31.463Z,100577.98
2018-07-12T19:23:59.986Z,100580.81
2018-07-12T19:26:28.575Z,100586.78
2018-07-12T19:28:57.618Z,100584.00
2018-07-12T19:31:26.181Z,100589.27
2018-07-12T19:33:54.726Z,100588.70
2018-07-12T19:36:23.217Z,100591.91
2018-07-12T19:38:51.708Z,100589.57
2018-07-12T19:41:20.292Z,100597.99
2018-07-12T19:43:48.722Z,100602.86
2018-07-12T19:46:17.340Z,100596.63
2018-07-12T19:48:45.825Z,100596.55
2018-07-12T19:51:14.333Z,100601.08
2018-07-12T19:53:42.845Z,100604.53
2018-07-12T19:56:11.443Z,100605.19
2018-07-12T19:58:40.024Z,100603.34
2018-07-12T20:01:08.523Z,100603.53
2018-07-12T20:03:37.034Z,100607.65
2018-07-12T20:06:05.493Z,100611.30
2018-07-12T20:08:34.612Z,100612.95
2018-07-12T20:11:03.619Z,100612.12
2018-07-12T20:13:37.143Z,100617.70
2018-07-12T20:16:12.188Z,100609.70
2018-07-12T20:18:41.958Z,100609.98
2018-07-12T20:21:11.817Z,100614.17
2018-07-12T20:23:42.645Z,100620.56
2018-07-12T20:26:11.257Z,100624.87
2018-07-12T20:28:39.786Z,100627.55
2018-07-12T20:31:08.300Z,100624.89
2018-07-12T20:33:36.784Z,100621.56
2018-07-12T20:36:05.717Z,100623.38
2018-07-12T20:38:34.241Z,100629.70
2018-07-12T20:41:02.800Z,100637.11
2018-07-12T20:43:31.400Z,100635.45
2018-07-12T20:45:59.894Z,100640.25
2018-07-12T20:48:28.413Z,100639.50
2018-07-12T20:50:56.842Z,100640.70
2018-07-12T20:53:25.318Z,100642.62
2018-07-12T20:55:53.758Z,100643.19
2018-07-12T20:58:22.263Z,100647.06
2018-07-12T21:00:50.705Z,100650.27
2018-07-12T21:03:19.362Z,100649.63
2018-07-12T21:05:47.839Z,100656.52
2018-07-12T21:08:17.023Z,100658.25
2018-07-12T21:10:45.989Z,100658.91
2018-07-12T21:13:14.405Z,100661.59
2018-07-12T21:15:42.874Z,100665.02
2018-07-12T21:18:11.641Z,100673.91
2018-07-12T21:20:40.510Z,100672.52
2018-07-12T21:23:09.825Z,100668.84
2018-07-12T21:25:38.663Z,100668.63
2018-07-12T21:28:07.259Z,100678.42
2018-07-12T21:30:35.754Z,100676.55
2018-07-12T21:33:04.272Z,100668.16
2018-07-12T21:35:32.955Z,100675.36
2018-07-12T21:38:01.400Z,100678.13
2018-07-12T21:40:30.039Z,100682.58
2018-07-12T21:42:58.529Z,100681.20
2018-07-12T21:45:27.127Z,100682.92
2018-07-12T21:47:55.713Z,100681.70
2018-07-12T21:50:24.386Z,100686.56
2018-07-12T21:52:52.857Z,100679.20
2018-07-12T21:55:23.247Z,100684.95
2018-07-12T21:57:52.398Z,100689.56
2018-07-12T22:00:20.974Z,100690.63
2018-07-12T22:02:49.496Z,100685.59
2018-07-12T22:05:18.387Z,100685.27
2018-07-12T22:08:24.180Z,100681.02
2018-07-12T22:10:54.044Z,100686.69
2018-07-12T22:13:23.199Z,100691.78
2018-07-12T22:15:51.727Z,100698.37
2018-07-12T22:18:20.388Z,100694.75
2018-07-12T22:20:48.941Z,100703.44
2018-07-12T22:23:17.591Z,100700.63
2018-07-12T22:25:46.264Z,100707.65
2018-07-12T22:28:14.976Z,100706.58
2018-07-12T22:30:43.646Z,100708.52
2018-07-12T22:33:12.173Z,100705.75
2018-07-12T22:35:40.715Z,100708.65
2018-07-12T22:38:09.316Z,100707.81
2018-07-12T22:40:37.852Z,100712.94
2018-07-12T22:43:06.451Z,100710.18
2018-07-12T22:45:34.973Z,100712.17
2018-07-12T22:48:03.620Z,100710.11
2018-07-12T22:50:32.122Z,100700.70
2018-07-12T22:53:00.684Z,100699.09
2018-07-12T22:55:29.135Z,100701.09
2018-07-12T22:57:57.635Z,100697.95
2018-07-12T23:00:26.815Z,100697.78
2018-07-12T23:02:55.344Z,100699.60
2018-07-12T23:05:24.131Z,100699.83
2018-07-12T23:07:52.646Z,100697.84
2018-07-12T23:10:21.304Z,100698.69
2018-07-12T23:12:49.924Z,100704.81
2018-07-12T23:15:18.692Z,100701.09
2018-07-12T23:17:47.282Z,100703.22
2018-07-12T23:20:16.122Z,100694.43
2018-07-12T23:22:44.784Z,100701.53
2018-07-12T23:25:14.151Z,100703.38
2018-07-12T23:27:42.572Z,100697.08
2018-07-12T23:30:11.249Z,100701.72
2018-07-12T23:32:39.668Z,100696.84
2018-07-12T23:35:08.221Z,100701.42
2018-07-12T23:37:36.636Z,100691.05
2018-07-12T23:40:05.252Z,100693.91
2018-07-12T23:42:33.907Z,100689.45
2018-07-12T23:45:02.386Z,100694.17
2018-07-12T23:47:30.929Z,100693.41
2018-07-12T23:49:59.447Z,100695.73
2018-07-12T23:52:27.936Z,100690.03
2018-07-12T23:54:56.362Z,100691.16
2018-07-12T23:57:25.167Z,100694.44
2018-07-12T23:59:53.607Z,100697.98
